createdAt,value
2022-09-03T00:00:39.945Z,79.96
2022-09-03T00:03:29.526Z,81.64
2022-09-03T00:06:21.230Z,82.46
2022-09-03T00:09:00.208Z,81.88
2022-09-03T00:11:48.148Z,81.50
2022-09-03T00:14:26.053Z,81.17
2022-09-03T00:17:01.447Z,81.73
2022-09-03T00:19:32.809Z,80.98
2022-09-03T00:22:10.580Z,80.30
2022-09-03T00:24:39.563Z,81.02
2022-09-03T00:27:12.083Z,80.66
2022-09-03T00:30:09.624Z,80.98
2022-09-03T00:32:48.642Z,81.13
2022-09-03T00:35:32.058Z,82.36
2022-09-03T00:38:00.284Z,81.66
2022-09-03T00:40:42.880Z,81.67
2022-09-03T00:43:32.426Z,81.11
2022-09-03T00:46:24.846Z,81.21
2022-09-03T00:49:24.062Z,82.17
2022-09-03T00:52:09.744Z,82.60
2022-09-03T00:54:49.893Z,82.59
2022-09-03T00:57:39.136Z,82.17
2022-09-03T01:00:19.577Z,81.93
2022-09-03T01:03:09.773Z,81.25
2022-09-03T01:06:01.709Z,81.22
2022-09-03T01:08:32.426Z,81.40
2022-09-03T01:11:02.985Z,81.11
2022-09-03T01:13:50.680Z,81.71
2022-09-03T01:16:52.204Z,81.59
2022-09-03T01:19:27.818Z,83.11
2022-09-03T01:22:20.608Z,83.52
2022-09-03T01:25:10.935Z,84.12
2022-09-03T01:28:02.105Z,83.02
2022-09-03T01:30:31.494Z,83.04
2022-09-03T01:33:04.598Z,84.19
2022-09-03T01:36:06.869Z,84.33
2022-09-03T01:38:45.797Z,84.05
2022-09-03T01:41:52.915Z,83.88
2022-09-03T01:44:45.029Z,83.18
2022-09-03T01:47:33.384Z,82.61
2022-09-03T01:50:34.286Z,83.04
2022-09-03T01:53:25.751Z,83.04
2022-09-03T01:55:56.799Z,83.07
2022-09-03T01:58:33.963Z,83.62
2022-09-03T02:01:09.825Z,83.45
2022-09-03T02:03:41.248Z,82.78
2022-09-03T02:06:09.477Z,82.81
2022-09-03T02:08:37.396Z,82.75
2022-09-03T02:11:07.200Z,82.23
2022-09-03T02:13:38.381Z,81.03
2022-09-03T02:16:13.362Z,81.44
2022-09-03T02:18:44.426Z,81.53
2022-09-03T02:21:13.414Z,81.72
2022-09-03T02:23:41.619Z,81.51
2022-09-03T02:26:09.802Z,80.29
2022-09-03T02:28:38.133Z,79.39
2022-09-03T02:31:05.991Z,78.49
2022-09-03T02:33:42.860Z,78.55
2022-09-03T02:36:13.168Z,78.93
2022-09-03T02:38:44.318Z,78.10
2022-09-03T02:41:15.293Z,78.50
2022-09-03T02:44:03.870Z,78.33
2022-09-03T02:46:41.775Z,78.58
2022-09-03T02:49:09.591Z,79.49
2022-09-03T02:51:41.965Z,79.46
2022-09-03T02:54:10.894Z,78.37
2022-09-03T02:56:38.703Z,77.85
2022-09-03T02:59:07.394Z,79.06
2022-09-03T03:01:35.315Z,79.44
2022-09-03T03:04:03.332Z,78.82
2022-09-03T03:06:30.972Z,79.50
2022-09-03T03:08:59.238Z,79.40
2022-09-03T03:11:27.861Z,79.19
2022-09-03T03:13:58.292Z,77.85
2022-09-03T03:16:25.876Z,76.72
2022-09-03T03:18:53.609Z,75.63
2022-09-03T03:21:21.209Z,74.83
2022-09-03T03:23:48.900Z,74.61
2022-09-03T03:26:18.719Z,73.70
2022-09-03T03:28:49.504Z,72.64
2022-09-03T03:31:21.354Z,72.02
2022-09-03T03:33:53.347Z,71.41
2022-09-03T03:36:21.477Z,71.45
2022-09-03T03:38:49.797Z,70.68
2022-09-03T03:41:22.041Z,69.99
2022-09-03T03:43:53.452Z,69.64
2022-09-03T03:46:22.560Z,68.87
2022-09-03T03:48:53.220Z,67.77
2022-09-03T03:51:21.094Z,66.13
2022-09-03T03:53:48.972Z,63.90
2022-09-03T03:56:17.073Z,62.05
2022-09-03T03:58:44.974Z,60.17
2022-09-03T04:01:20.532Z,57.43
2022-09-03T04:03:48.528Z,56.09
2022-09-03T04:06:18.636Z,54.84
2022-09-03T04:08:47.705Z,55.21
2022-09-03T04:11:19.468Z,56.84
2022-09-03T04:13:47.852Z,57.92
2022-09-03T04:16:26.367Z,58.05
2022-09-03T04:18:54.704Z,56.94
2022-09-03T04:21:23.562Z,53.17
2022-09-03T04:23:51.708Z,51.78
2022-09-03T04:26:23.974Z,49.75
2022-09-03T04:28:51.604Z,50.37
2022-09-03T04:31:20.475Z,49.57
2022-09-03T04:33:48.062Z,47.27
2022-09-03T04:36:20.623Z,46.45
2022-09-03T04:38:50.090Z,45.67
2022-09-03T04:41:19.228Z,46.11
2022-09-03T04:43:51.363Z,45.94
2022-09-03T04:46:20.401Z,45.98
2022-09-03T04:48:50.422Z,43.52
2022-09-03T04:51:23.509Z,42.13
2022-09-03T04:53:57.232Z,43.29
2022-09-03T04:56:29.935Z,43.42
2022-09-03T04:58:58.908Z,42.74
2022-09-03T05:01:27.972Z,44.30
2022-09-03T05:03:56.727Z,43.71
2022-09-03T05:06:25.890Z,44.67
2022-09-03T05:08:54.506Z,45.66
2022-09-03T05:11:22.813Z,45.35
2022-09-03T05:13:51.669Z,44.94
2022-09-03T05:16:19.636Z,44.43
2022-09-03T05:18:47.981Z,45.72
2022-09-03T05:21:17.181Z,45.32
2022-09-03T05:23:46.209Z,45.43
2022-09-03T05:26:15.512Z,45.69
2022-09-03T05:28:43.463Z,46.02
2022-09-03T05:31:12.632Z,46.46
2022-09-03T05:33:45.126Z,45.91
2022-09-03T05:36:14.178Z,46.68
2022-09-03T05:38:41.819Z,46.06
2022-09-03T05:41:10.558Z,45.81
2022-09-03T05:43:38.885Z,45.49
2022-09-03T05:46:08.121Z,45.07
2022-09-03T05:48:36.822Z,45.75
2022-09-03T05:51:06.386Z,45.54
2022-09-03T05:53:36.606Z,44.59
2022-09-03T05:56:11.024Z,43.96
2022-09-03T05:58:45.476Z,43.36
2022-09-03T06:01:17.111Z,43.22
2022-09-03T06:03:45.524Z,42.73
2022-09-03T06:06:14.148Z,41.89
2022-09-03T06:08:42.373Z,41.70
2022-09-03T06:11:09.942Z,42.00
2022-09-03T06:13:38.424Z,41.76
2022-09-03T06:16:07.119Z,40.96
2022-09-03T06:18:35.107Z,42.50
2022-09-03T06:21:04.780Z,40.53
2022-09-03T06:23:33.657Z,41.38
2022-09-03T06:26:11.900Z,39.83
2022-09-03T06:28:44.354Z,39.36
2022-09-03T06:31:14.772Z,39.84
2022-09-03T06:33:43.119Z,39.47
2022-09-03T06:36:13.248Z,39.58
2022-09-03T06:38:41.104Z,39.84
2022-09-03T06:41:24.007Z,39.90
2022-09-03T06:43:53.392Z,39.83
2022-09-03T06:46:22.229Z,39.32
2022-09-03T06:48:51.906Z,39.47
2022-09-03T06:51:24.002Z,38.39
2022-09-03T06:53:52.913Z,38.99
2022-09-03T06:56:27.364Z,37.77
2022-09-03T06:58:58.937Z,37.53
2022-09-03T07:01:27.480Z,37.88
2022-09-03T07:03:56.647Z,37.99
2022-09-03T07:06:25.731Z,37.81
2022-09-03T07:08:54.752Z,37.39
2022-09-03T07:11:26.280Z,37.67
2022-09-03T07:13:56.531Z,37.11
2022-09-03T07:16:26.290Z,36.53
2022-09-03T07:18:54.509Z,37.60
2022-09-03T07:21:27.124Z,37.84
2022-09-03T07:23:57.784Z,38.64
2022-09-03T07:26:28.060Z,37.33
2022-09-03T07:28:56.186Z,35.05
2022-09-03T07:31:38.064Z,34.92
2022-09-03T07:34:09.985Z,34.81
2022-09-03T07:36:40.247Z,36.85
2022-09-03T07:39:09.396Z,34.98
2022-09-03T07:41:38.005Z,34.45
2022-09-03T07:44:08.462Z,36.02
2022-09-03T07:46:38.255Z,35.17
2022-09-03T07:49:09.791Z,34.33
2022-09-03T07:51:38.667Z,34.09
2022-09-03T07:54:09.966Z,33.97
2022-09-03T07:56:39.804Z,34.41
2022-09-03T07:59:08.462Z,33.19
2022-09-03T08:01:38.261Z,32.61
2022-09-03T08:04:09.779Z,34.13
2022-09-03T08:06:38.116Z,32.91
2022-09-03T08:09:07.245Z,33.44
2022-09-03T08:11:37.710Z,33.71
2022-09-03T08:14:07.190Z,33.10
2022-09-03T08:16:42.103Z,32.36
2022-09-03T08:19:11.548Z,31.43
2022-09-03T08:21:42.275Z,32.36
2022-09-03T08:24:15.028Z,32.74
2022-09-03T08:26:46.341Z,32.52
2022-09-03T08:29:18.423Z,33.46
2022-09-03T08:31:47.155Z,33.07
2022-09-03T08:34:17.145Z,32.38
2022-09-03T08:36:47.107Z,33.10
2022-09-03T08:39:15.356Z,34.89
2022-09-03T08:42:01.661Z,34.00
2022-09-03T08:44:38.631Z,32.77
2022-09-03T08:47:36.069Z,33.80
2022-09-03T08:50:13.451Z,33.81
2022-09-03T08:53:02.448Z,33.58
2022-09-03T08:55:36.876Z,32.57
2022-09-03T08:58:14.333Z,32.73
2022-09-03T09:01:01.894Z,34.57
2022-09-03T09:03:43.691Z,32.55
2022-09-03T09:06:27.969Z,31.91
2022-09-03T09:09:20.931Z,32.80
2022-09-03T09:12:14.390Z,31.33
2022-09-03T09:14:46.931Z,30.70
2022-09-03T09:17:44.408Z,31.83
2022-09-03T09:20:16.291Z,29.24
2022-09-03T09:22:47.630Z,29.54
2022-09-03T09:25:21.443Z,31.37
2022-09-03T09:28:02.476Z,30.27
2022-09-03T09:30:31.083Z,29.83
2022-09-03T09:33:00.755Z,29.99
2022-09-03T09:35:28.577Z,29.53
2022-09-03T09:37:57.808Z,30.08
2022-09-03T09:40:33.325Z,29.86
2022-09-03T09:43:11.089Z,30.17
2022-09-03T09:45:46.718Z,30.18
2022-09-03T09:48:31.704Z,30.42
2022-09-03T09:51:06.269Z,30.63
2022-09-03T09:53:35.210Z,31.56
2022-09-03T09:56:03.214Z,30.67
2022-09-03T09:58:31.287Z,30.33
2022-09-03T10:01:13.604Z,31.06
2022-09-03T10:03:57.216Z,30.18
2022-09-03T10:06:44.226Z,31.85
2022-09-03T10:09:26.724Z,29.90
2022-09-03T10:12:05.292Z,30.20
2022-09-03T10:14:38.928Z,30.17
2022-09-03T10:17:26.571Z,29.53
2022-09-03T10:20:33.774Z,29.97
2022-09-03T10:23:08.302Z,29.86
2022-09-03T10:26:32.332Z,30.29
2022-09-03T10:29:01.645Z,30.11
2022-09-03T10:31:36.955Z,30.72
2022-09-03T10:34:14.108Z,30.06
2022-09-03T10:37:22.753Z,29.87
2022-09-03T10:40:31.803Z,30.65
2022-09-03T10:43:21.594Z,30.30
2022-09-03T10:46:03.385Z,30.70
2022-09-03T10:48:49.170Z,30.36
2022-09-03T10:51:49.480Z,29.56
2022-09-03T10:54:47.888Z,30.95
2022-09-03T10:57:19.309Z,30.24
2022-09-03T10:59:58.631Z,29.98
2022-09-03T11:02:32.559Z,30.47
2022-09-03T11:05:08.151Z,30.09
2022-09-03T11:07:39.410Z,30.24
2022-09-03T11:10:31.429Z,29.82
2022-09-03T11:13:08.762Z,30.04
2022-09-03T11:15:39.495Z,30.77
2022-09-03T11:18:07.521Z,30.50
2022-09-03T11:20:35.207Z,30.25
2022-09-03T11:23:05.125Z,30.26
2022-09-03T11:25:36.017Z,29.99
2022-09-03T11:28:21.338Z,31.05
2022-09-03T11:31:16.043Z,30.75
2022-09-03T11:33:50.304Z,29.96
2022-09-03T11:36:33.701Z,30.04
2022-09-03T11:39:01.460Z,29.45
2022-09-03T11:41:35.931Z,29.48
2022-09-03T11:44:19.163Z,28.87
2022-09-03T11:46:56.868Z,29.35
2022-09-03T11:49:31.797Z,28.76
2022-09-03T11:52:04.774Z,28.95
2022-09-03T11:54:33.070Z,29.25
2022-09-03T11:57:10.609Z,29.12
2022-09-03T11:59:38.211Z,28.95
2022-09-03T12:02:16.564Z,28.81
2022-09-03T12:04:50.306Z,28.45
2022-09-03T12:07:21.201Z,28.34
2022-09-03T12:09:51.784Z,28.89
2022-09-03T12:12:47.417Z,28.97
2022-09-03T12:15:34.040Z,29.35
2022-09-03T12:18:19.963Z,28.77
2022-09-03T12:21:09.956Z,29.43
2022-09-03T12:23:45.693Z,29.74
2022-09-03T12:26:17.543Z,30.04
2022-09-03T12:28:52.722Z,29.37
2022-09-03T12:31:23.962Z,29.87
2022-09-03T12:33:52.860Z,29.52
2022-09-03T12:36:24.023Z,30.10
2022-09-03T12:39:10.819Z,29.80
2022-09-03T12:41:39.616Z,29.42
2022-09-03T12:44:07.502Z,30.03
2022-09-03T12:46:35.295Z,30.19
2022-09-03T12:52:06.270Z,29.78
2022-09-03T12:54:36.127Z,30.00
2022-09-03T12:57:03.959Z,30.11
2022-09-03T12:59:33.530Z,30.71
2022-09-03T13:02:09.411Z,29.91
2022-09-03T13:04:37.149Z,30.33
2022-09-03T13:07:22.999Z,29.99
2022-09-03T13:09:50.680Z,30.26
2022-09-03T13:12:24.658Z,30.47
2022-09-03T13:14:53.791Z,30.02
2022-09-03T13:17:38.864Z,30.77
2022-09-03T13:20:26.985Z,30.12
2022-09-03T13:23:00.760Z,30.62
2022-09-03T13:25:46.492Z,30.68
2022-09-03T13:28:27.607Z,30.89
2022-09-03T13:31:25.946Z,30.33
2022-09-03T13:34:02.069Z,30.91
2022-09-03T13:36:51.779Z,30.52
2022-09-03T13:39:24.673Z,30.72
2022-09-03T13:42:13.069Z,30.05
2022-09-03T13:45:06.877Z,30.94
2022-09-03T13:48:01.316Z,30.49
2022-09-03T13:50:29.586Z,31.49
2022-09-03T13:52:59.400Z,31.24
2022-09-03T13:55:42.159Z,31.68
2022-09-03T13:58:42.591Z,30.82
2022-09-03T14:01:23.926Z,31.46
2022-09-03T14:03:58.615Z,31.17
2022-09-03T14:06:41.507Z,31.51
2022-09-03T14:09:34.308Z,31.49
2022-09-03T14:12:26.780Z,31.77
2022-09-03T14:14:57.494Z,31.59
2022-09-03T14:17:51.318Z,31.82
2022-09-03T14:20:33.628Z,32.07
2022-09-03T14:23:22.397Z,31.42
2022-09-03T14:25:54.794Z,31.59
2022-09-03T14:28:40.825Z,32.03
2022-09-03T14:31:23.599Z,32.10
2022-09-03T14:34:14.728Z,31.90
2022-09-03T14:36:51.333Z,32.33
2022-09-03T14:39:29.142Z,32.21
2022-09-03T14:42:19.685Z,32.69
2022-09-03T14:44:52.164Z,33.04
2022-09-03T14:47:23.967Z,32.53
2022-09-03T14:50:03.805Z,32.93
2022-09-03T14:52:53.469Z,33.18
2022-09-03T14:55:29.817Z,33.36
2022-09-03T14:58:06.613Z,34.27
2022-09-03T15:00:48.204Z,34.14
2022-09-03T15:03:18.686Z,34.56
2022-09-03T15:06:03.786Z,34.39
2022-09-03T15:08:44.031Z,34.84
2022-09-03T15:11:19.835Z,34.91
2022-09-03T15:13:54.148Z,34.53
2022-09-03T15:16:52.244Z,34.53
2022-09-03T15:19:28.986Z,34.37
2022-09-03T15:22:14.999Z,34.63
2022-09-03T15:25:05.670Z,34.24
2022-09-03T15:27:56.104Z,34.39
2022-09-03T15:30:23.836Z,34.81
2022-09-03T15:33:18.895Z,34.92
2022-09-03T15:36:01.434Z,34.94
2022-09-03T15:38:32.310Z,35.15
2022-09-03T15:41:08.559Z,35.28
2022-09-03T15:43:36.333Z,35.32
2022-09-03T15:46:13.943Z,35.12
2022-09-03T15:48:59.800Z,35.68
2022-09-03T15:51:33.400Z,36.10
2022-09-03T15:54:27.319Z,35.72
2022-09-03T15:57:05.473Z,35.82
2022-09-03T15:59:47.911Z,36.10
2022-09-03T16:02:18.496Z,35.94
2022-09-03T16:05:09.091Z,36.15
2022-09-03T16:07:37.235Z,35.96
2022-09-03T16:10:30.780Z,36.14
2022-09-03T16:13:22.834Z,36.09
2022-09-03T16:16:04.230Z,36.04
2022-09-03T16:18:49.974Z,36.26
2022-09-03T16:21:23.357Z,36.24
2022-09-03T16:23:59.941Z,36.54
2022-09-03T16:26:41.421Z,36.33
2022-09-03T16:29:09.761Z,36.35
2022-09-03T16:32:27.170Z,36.68
2022-09-03T16:35:23.659Z,36.69
2022-09-03T16:38:25.358Z,36.70
2022-09-03T16:40:52.996Z,37.32
2022-09-03T16:43:40.114Z,37.04
2022-09-03T16:46:30.973Z,37.40
2022-09-03T16:49:19.181Z,37.43
2022-09-03T16:52:07.863Z,37.54
2022-09-03T16:54:44.764Z,37.54
2022-09-03T16:57:35.685Z,37.66
2022-09-03T17:00:12.241Z,37.53
2022-09-03T17:02:51.846Z,37.62
2022-09-03T17:05:22.343Z,37.56
2022-09-03T17:08:07.085Z,37.39
2022-09-03T17:10:40.352Z,37.70
2022-09-03T17:13:45.209Z,37.59
2022-09-03T17:16:24.369Z,38.01
2022-09-03T17:19:02.297Z,37.80
2022-09-03T17:21:51.371Z,37.49
2022-09-03T17:24:33.593Z,37.76
2022-09-03T17:27:21.264Z,37.50
2022-09-03T17:30:01.277Z,37.63
2022-09-03T17:33:03.322Z,37.69
2022-09-03T17:36:31.515Z,37.65
2022-09-03T17:39:36.758Z,37.66
2022-09-03T17:42:06.581Z,38.19
2022-09-03T17:44:42.865Z,37.63
2022-09-03T17:47:36.540Z,37.70
2022-09-03T17:50:27.553Z,38.61
2022-09-03T17:53:01.228Z,39.00
2022-09-03T17:55:40.287Z,39.81
2022-09-03T17:58:16.921Z,39.32
2022-09-03T18:00:46.279Z,39.51
2022-09-03T18:03:24.572Z,39.14
2022-09-03T18:06:01.323Z,38.86
2022-09-03T18:08:46.764Z,38.76
2022-09-03T18:11:30.783Z,39.34
2022-09-03T18:14:16.716Z,39.21
2022-09-03T18:17:09.856Z,39.29
2022-09-03T18:20:08.885Z,38.93
2022-09-03T18:23:18.678Z,38.76
2022-09-03T18:26:07.140Z,38.29
2022-09-03T18:29:31.586Z,38.64
2022-09-03T18:32:18.957Z,39.40
2022-09-03T18:35:05.729Z,39.34
2022-09-03T18:37:52.207Z,38.94
2022-09-03T18:40:49.911Z,39.15
2022-09-03T18:44:08.237Z,39.14
2022-09-03T18:48:01.848Z,39.48
2022-09-03T18:50:32.076Z,41.79
2022-09-03T18:53:47.166Z,43.42
2022-09-03T18:56:58.177Z,45.13
2022-09-03T19:00:09.932Z,45.67
2022-09-03T19:03:05.471Z,48.06
2022-09-03T19:05:58.977Z,48.53
2022-09-03T19:08:55.783Z,49.05
2022-09-03T19:11:51.178Z,50.96
2022-09-03T19:15:19.160Z,51.06
2022-09-03T19:18:18.529Z,50.98
2022-09-03T19:21:25.943Z,52.69
2022-09-03T19:24:12.376Z,52.65
2022-09-03T19:27:51.729Z,54.31
2022-09-03T19:30:59.195Z,55.20
2022-09-03T19:34:08.432Z,58.27
2022-09-03T19:37:09.844Z,59.67
2022-09-03T19:40:25.537Z,62.34
2022-09-03T19:43:17.753Z,65.46
2022-09-03T19:46:21.728Z,66.97
2022-09-03T19:49:41.709Z,66.62
2022-09-03T19:52:36.901Z,69.81
2022-09-03T19:55:23.599Z,71.00
2022-09-03T19:58:26.180Z,71.09
2022-09-03T20:01:19.487Z,72.56
2022-09-03T20:04:05.984Z,73.10
2022-09-03T20:06:52.533Z,74.37
2022-09-03T20:09:40.072Z,75.32
2022-09-03T20:12:10.038Z,76.28
2022-09-03T20:14:39.152Z,76.75
2022-09-03T20:17:21.277Z,78.02
2022-09-03T20:20:04.760Z,77.95
2022-09-03T20:22:59.861Z,79.11
2022-09-03T20:26:06.121Z,80.55
2022-09-03T20:28:56.804Z,80.76
2022-09-03T20:32:01.242Z,82.08
2022-09-03T20:34:32.897Z,82.44
2022-09-03T20:37:19.285Z,83.53
2022-09-03T20:39:58.660Z,84.16
2022-09-03T20:42:31.984Z,83.54
2022-09-03T20:45:06.774Z,84.08
2022-09-03T20:48:00.437Z,85.48
2022-09-03T20:50:43.907Z,86.74
2022-09-03T20:53:49.091Z,87.04
2022-09-03T20:56:41.493Z,87.54
2022-09-03T20:59:28.117Z,88.48
2022-09-03T21:02:32.184Z,88.68
2022-09-03T21:05:15.168Z,89.43
2022-09-03T21:08:20.069Z,89.22
2022-09-03T21:10:58.272Z,90.08
2022-09-03T21:13:25.832Z,90.78
2022-09-03T21:16:14.298Z,90.90
2022-09-03T21:18:50.248Z,90.48
2022-09-03T21:21:45.863Z,89.90
2022-09-03T21:24:20.229Z,89.90
2022-09-03T21:26:52.176Z,90.53
2022-09-03T21:29:24.360Z,90.35
2022-09-03T21:32:18.688Z,90.71
2022-09-03T21:34:58.639Z,91.06
2022-09-03T21:37:26.237Z,91.14
2022-09-03T21:39:57.015Z,91.86
2022-09-03T21:42:34.491Z,91.72
2022-09-03T21:45:07.773Z,91.81
2022-09-03T21:47:39.596Z,92.67
2022-09-03T21:50:17.478Z,92.36
2022-09-03T21:53:07.455Z,92.89
2022-09-03T21:55:58.140Z,92.00
2022-09-03T21:58:30.789Z,92.20
2022-09-03T22:01:06.438Z,92.92
2022-09-03T22:03:34.844Z,92.80
2022-09-03T22:06:25.971Z,92.04
2022-09-03T22:09:27.649Z,92.04
2022-09-03T22:11:59.769Z,92.77
2022-09-03T22:14:28.257Z,93.39
2022-09-03T22:17:36.894Z,93.52
2022-09-03T22:20:05.362Z,92.64
2022-09-03T22:22:41.013Z,92.98
2022-09-03T22:25:29.930Z,94.00
2022-09-03T22:28:22.564Z,95.20
2022-09-03T22:31:06.693Z,94.85
2022-09-03T22:33:55.981Z,96.29
2022-09-03T22:36:28.643Z,97.07
2022-09-03T22:39:08.235Z,97.32
2022-09-03T22:41:47.978Z,97.30
2022-09-03T22:44:23.080Z,97.97
2022-09-03T22:47:00.651Z,98.03
2022-09-03T22:49:44.712Z,98.21
2022-09-03T22:52:30.406Z,98.66
2022-09-03T22:55:02.972Z,98.44
2022-09-03T22:57:30.652Z,98.58
2022-09-03T23:00:06.923Z,99.37
2022-09-03T23:02:34.781Z,99.31
2022-09-03T23:05:22.572Z,99.30
2022-09-03T23:08:22.037Z,99.69
2022-09-03T23:11:08.332Z,100.00
2022-09-03T23:13:42.161Z,100.00
2022-09-03T23:16:24.490Z,100.00
2022-09-03T23:18:52.483Z,100.00
2022-09-03T23:21:23.842Z,100.00
2022-09-03T23:24:00.032Z,100.00
2022-09-03T23:26:37.871Z,100.00
2022-09-03T23:29:11.514Z,100.00
2022-09-03T23:31:39.753Z,100.00
2022-09-03T23:34:09.248Z,100.00
2022-09-03T23:37:32.540Z,100.00
2022-09-03T23:40:03.996Z,100.00
2022-09-03T23:43:08.306Z,100.00
2022-09-03T23:45:36.370Z,100.00
2022-09-03T23:48:06.555Z,100.00
2022-09-03T23:51:02.089Z,100.00
2022-09-03T23:53:32.135Z,100.00
2022-09-03T23:56:26.016Z,100.00
2022-09-03T23:59:15.466Z,100.00
